createdAt,value
2019-05-07T00:00:53.059Z,97773.81
2019-05-07T00:03:22.067Z,97780.27
2019-05-07T00:05:53.699Z,97781.20
2019-05-07T00:08:22.796Z,97784.65
2019-05-07T00:10:52.895Z,97784.30
2019-05-07T00:13:22.713Z,97783.02
2019-05-07T00:15:52.793Z,97781.76
2019-05-07T00:18:22.972Z,97784.34
2019-05-07T00:20:52.961Z,97783.08
2019-05-07T00:23:23.151Z,97785.67
2019-05-07T00:25:52.910Z,97782.67
2019-05-07T00:28:23.028Z,97790.00
2019-05-07T00:30:52.169Z,97786.59
2019-05-07T00:33:22.571Z,97781.08
2019-05-07T00:36:04.299Z,97784.03
2019-05-07T00:38:34.371Z,97787.05
2019-05-07T00:41:04.389Z,97784.97
2019-05-07T00:43:33.780Z,97787.12
2019-05-07T00:46:03.822Z,97781.19
2019-05-07T00:48:32.997Z,97785.04
2019-05-07T00:51:18.937Z,97787.64
2019-05-07T00:53:47.327Z,97779.98
2019-05-07T00:56:15.760Z,97781.69
2019-05-07T00:58:44.174Z,97777.84
2019-05-07T01:01:13.141Z,97779.95
2019-05-07T01:03:42.463Z,97779.15
2019-05-07T01:06:12.886Z,97773.62
2019-05-07T01:08:43.040Z,97774.93
2019-05-07T01:11:13.148Z,97781.36
2019-05-07T01:13:43.134Z,97778.42
2019-05-07T01:16:12.908Z,97783.98
2019-05-07T01:18:42.103Z,97784.40
2019-05-07T01:21:13.077Z,97780.16
2019-05-07T01:23:42.790Z,97784.41
2019-05-07T01:26:12.452Z,97789.53
2019-05-07T01:28:59.071Z,97789.54
2019-05-07T01:31:32.865Z,97792.08
2019-05-07T01:34:02.974Z,97783.55
2019-05-07T01:36:31.950Z,97777.14
2019-05-07T01:39:02.548Z,97781.82
2019-05-07T01:41:32.603Z,97780.52
2019-05-07T01:44:02.073Z,97778.38
2019-05-07T01:46:32.491Z,97780.95
2019-05-07T01:49:02.902Z,97778.80
2019-05-07T01:51:32.692Z,97773.28
2019-05-07T01:54:02.200Z,97766.00
2019-05-07T01:56:32.996Z,97772.39
2019-05-07T01:59:02.402Z,97780.12
2019-05-07T02:01:33.135Z,97784.44
2019-05-07T02:04:12.746Z,97781.08
2019-05-07T02:06:58.992Z,97778.14
2019-05-07T02:09:33.906Z,97781.97
2019-05-07T02:12:03.610Z,97778.55
2019-05-07T02:14:32.987Z,97774.31
2019-05-07T02:17:02.956Z,97778.55
2019-05-07T02:19:32.963Z,97773.45
2019-05-07T02:22:02.844Z,97772.19
2019-05-07T02:24:33.688Z,97772.66
2019-05-07T02:27:03.006Z,97769.70
2019-05-07T02:29:32.439Z,97771.02
2019-05-07T02:32:04.278Z,97774.44
2019-05-07T02:34:33.892Z,97770.18
2019-05-07T02:37:03.996Z,97773.63
2019-05-07T02:39:33.515Z,97770.22
2019-05-07T02:42:03.691Z,97764.24
2019-05-07T02:44:33.887Z,97772.37
2019-05-07T02:47:23.524Z,97770.66
2019-05-07T02:49:53.585Z,97767.70
2019-05-07T02:52:43.394Z,97768.55
2019-05-07T02:55:13.456Z,97768.13
2019-05-07T02:57:43.487Z,97766.01
2019-05-07T03:00:14.587Z,97703.52
2019-05-07T03:02:43.699Z,97764.77
2019-05-07T03:05:13.626Z,97761.81
2019-05-07T03:07:42.885Z,97767.77
2019-05-07T03:10:13.825Z,97757.98
2019-05-07T03:12:43.071Z,97758.00
2019-05-07T03:15:13.193Z,97762.69
2019-05-07T03:17:42.954Z,97760.15
2019-05-07T03:20:13.974Z,97762.30
2019-05-07T03:22:42.994Z,97761.03
2019-05-07T03:25:16.634Z,97761.88
2019-05-07T03:27:45.092Z,97763.16
2019-05-07T03:30:17.023Z,97764.02
2019-05-07T03:32:49.827Z,97763.62
2019-05-07T03:35:19.933Z,97761.91
2019-05-07T03:37:48.438Z,97765.34
2019-05-07T03:40:17.012Z,97768.73
2019-05-07T03:42:45.479Z,97766.63
2019-05-07T03:45:18.632Z,97761.52
2019-05-07T03:47:48.708Z,97758.97
2019-05-07T03:50:17.208Z,97761.93
2019-05-07T03:52:45.605Z,97763.65
2019-05-07T03:55:14.795Z,97760.25
2019-05-07T03:57:43.971Z,97756.87
2019-05-07T04:00:13.564Z,97760.27
2019-05-07T04:02:43.834Z,97766.22
2019-05-07T04:05:13.952Z,97763.66
2019-05-07T04:07:43.244Z,97759.42
2019-05-07T04:10:14.648Z,97754.31
2019-05-07T04:12:44.122Z,97757.27
2019-05-07T04:15:14.568Z,97750.88
2019-05-07T04:17:46.575Z,97755.14
2019-05-07T04:20:15.431Z,97760.25
2019-05-07T04:22:43.930Z,97756.81
2019-05-07T04:25:16.801Z,97756.40
2019-05-07T04:27:55.599Z,97754.23
2019-05-07T04:30:24.159Z,97757.22
2019-05-07T04:32:54.244Z,97765.28
2019-05-07T04:35:35.126Z,97766.98
2019-05-07T04:38:06.967Z,97775.48
2019-05-07T04:40:34.070Z,97777.19
2019-05-07T04:43:02.948Z,97775.91
2019-05-07T04:45:33.735Z,97783.14
2019-05-07T04:48:03.127Z,97778.45
2019-05-07T04:50:42.576Z,97784.41
2019-05-07T04:53:03.478Z,97776.73
2019-05-07T04:55:33.406Z,97780.09
2019-05-07T04:58:04.545Z,97777.48
2019-05-07T05:00:33.627Z,97773.61
2019-05-07T05:03:12.665Z,97776.95
2019-05-07T05:05:39.865Z,97779.48
2019-05-07T05:08:08.249Z,97781.14
2019-05-07T05:10:36.649Z,97782.83
2019-05-07T05:13:05.110Z,97785.80
2019-05-07T05:15:33.502Z,97780.63
2019-05-07T05:18:02.673Z,97779.73
2019-05-07T05:20:33.651Z,97784.36
2019-05-07T05:23:03.799Z,97779.61
2019-05-07T05:25:43.095Z,97782.52
2019-05-07T05:28:12.489Z,97786.27
2019-05-07T05:30:42.688Z,97785.29
2019-05-07T05:33:12.534Z,97789.01
2019-05-07T05:35:43.082Z,97785.88
2019-05-07T05:38:12.628Z,97780.17
2019-05-07T05:40:42.727Z,97790.27
2019-05-07T05:43:22.490Z,97795.24
2019-05-07T05:45:53.091Z,97790.36
2019-05-07T05:48:22.406Z,97788.91
2019-05-07T05:51:07.460Z,97792.63
2019-05-07T05:53:37.493Z,97792.94
2019-05-07T05:56:07.544Z,97797.02
2019-05-07T05:58:40.246Z,97791.19
2019-05-07T06:01:10.276Z,97789.70
2019-05-07T06:03:43.285Z,97789.53
2019-05-07T06:06:16.477Z,97798.32
2019-05-07T06:08:56.094Z,97798.56
2019-05-07T06:11:26.128Z,97795.47
2019-05-07T06:14:08.144Z,97797.78
2019-05-07T06:16:42.047Z,97790.33
2019-05-07T06:19:15.051Z,97792.74
2019-05-07T06:21:52.627Z,97789.58
2019-05-07T06:24:22.805Z,97788.03
2019-05-07T06:26:52.211Z,97792.02
2019-05-07T06:29:22.977Z,97793.81
2019-05-07T06:31:52.899Z,97790.82
2019-05-07T06:34:21.976Z,97794.28
2019-05-07T06:36:52.606Z,97797.24
2019-05-07T06:39:22.294Z,97797.43
2019-05-07T06:42:08.770Z,97797.81
2019-05-07T06:44:37.160Z,97798.20
2019-05-07T06:47:05.628Z,97794.73
2019-05-07T06:49:34.026Z,97795.28
2019-05-07T06:52:02.974Z,97793.44
2019-05-07T06:54:32.123Z,97793.38
2019-05-07T06:57:02.028Z,97800.53
2019-05-07T06:59:34.595Z,97796.14
2019-05-07T07:02:05.712Z,97794.71
2019-05-07T07:04:36.087Z,97794.75
2019-05-07T07:07:06.178Z,97800.78
2019-05-07T07:09:45.226Z,97793.32
2019-05-07T07:12:25.944Z,97798.90
2019-05-07T07:14:54.061Z,97793.67
2019-05-07T07:17:22.465Z,97789.24
2019-05-07T07:19:52.340Z,97780.59
2019-05-07T07:22:22.287Z,97783.11
2019-05-07T07:24:53.011Z,97778.78
2019-05-07T07:27:22.677Z,97751.12
2019-05-07T07:29:55.082Z,97771.31
2019-05-07T07:32:34.169Z,97774.09
2019-05-07T07:35:02.629Z,97771.82
2019-05-07T07:37:43.083Z,97767.08
2019-05-07T07:40:27.707Z,97765.15
2019-05-07T07:42:56.094Z,97756.45
2019-05-07T07:45:24.481Z,97767.30
2019-05-07T07:47:53.157Z,97760.55
2019-05-07T07:50:22.621Z,97760.28
2019-05-07T07:52:52.967Z,97760.47
2019-05-07T07:55:22.834Z,97761.25
2019-05-07T07:58:02.541Z,97753.69
2019-05-07T08:00:32.902Z,97749.06
2019-05-07T08:03:02.999Z,97748.55
2019-05-07T08:05:32.571Z,97749.20
2019-05-07T08:08:02.272Z,97745.76
2019-05-07T08:10:32.556Z,97742.96
2019-05-07T08:13:01.992Z,97736.48
2019-05-07T08:15:32.837Z,97732.20
2019-05-07T08:18:02.851Z,97728.38
2019-05-07T08:20:32.639Z,97726.73
2019-05-07T08:23:02.884Z,97729.24
2019-05-07T08:25:52.211Z,97722.30
2019-05-07T08:28:22.791Z,97718.84
2019-05-07T08:30:55.065Z,97715.23
2019-05-07T08:33:32.266Z,97716.13
2019-05-07T08:36:05.053Z,97709.06
2019-05-07T08:38:35.071Z,97714.11
2019-05-07T08:41:03.467Z,97707.64
2019-05-07T08:43:32.282Z,97709.71
2019-05-07T08:46:17.286Z,97708.84
2019-05-07T08:48:47.465Z,97707.11
2019-05-07T08:51:15.921Z,97705.30
2019-05-07T08:53:44.312Z,97697.36
2019-05-07T08:56:12.694Z,97701.09
2019-05-07T08:58:42.064Z,97699.00
2019-05-07T09:01:11.903Z,97700.77
2019-05-07T09:03:43.346Z,97694.73
2019-05-07T09:06:13.421Z,97692.31
2019-05-07T09:08:43.635Z,97690.63
2019-05-07T09:11:13.373Z,97695.16
2019-05-07T09:13:42.152Z,97693.92
2019-05-07T09:16:12.963Z,97685.02
2019-05-07T09:18:42.213Z,97690.20
2019-05-07T09:21:12.531Z,97690.25
2019-05-07T09:23:42.426Z,97688.59
2019-05-07T09:26:13.076Z,97689.52
2019-05-07T09:28:58.423Z,97686.06
2019-05-07T09:31:44.509Z,97691.28
2019-05-07T09:34:12.892Z,97688.70
2019-05-07T09:36:42.918Z,97681.75
2019-05-07T09:39:12.095Z,97687.30
2019-05-07T09:41:41.775Z,97676.95
2019-05-07T09:44:11.957Z,97684.51
2019-05-07T09:46:42.893Z,97673.00
2019-05-07T09:49:12.049Z,97670.11
2019-05-07T09:51:42.579Z,97673.30
2019-05-07T09:54:12.592Z,97672.58
2019-05-07T09:56:42.231Z,97670.36
2019-05-07T09:59:12.532Z,97669.71
2019-05-07T10:01:40.937Z,97663.02
2019-05-07T10:04:09.331Z,97663.52
2019-05-07T10:06:37.883Z,97668.84
2019-05-07T10:09:06.907Z,97660.96
2019-05-07T10:11:37.008Z,97658.89
2019-05-07T10:14:12.671Z,97658.89
2019-05-07T10:16:58.484Z,97655.89
2019-05-07T10:19:27.013Z,97650.48
2019-05-07T10:21:55.632Z,97651.84
2019-05-07T10:24:24.013Z,97654.63
2019-05-07T10:26:53.143Z,97645.91
2019-05-07T10:29:22.693Z,97650.37
2019-05-07T10:31:52.735Z,97646.91
2019-05-07T10:34:22.851Z,97645.45
2019-05-07T10:36:52.351Z,97638.77
2019-05-07T10:39:22.045Z,97642.28
2019-05-07T10:41:50.548Z,97636.73
2019-05-07T10:44:22.790Z,97633.81
2019-05-07T10:47:08.755Z,97632.86
2019-05-07T10:49:38.829Z,97627.27
2019-05-07T10:52:07.244Z,97627.39
2019-05-07T10:54:35.628Z,97622.20
2019-05-07T10:57:04.211Z,97620.38
2019-05-07T10:59:32.592Z,97620.38
2019-05-07T11:02:02.616Z,97613.70
2019-05-07T11:04:40.172Z,97615.97
2019-05-07T11:07:01.118Z,97614.80
2019-05-07T11:09:29.503Z,97619.21
2019-05-07T11:11:57.891Z,97620.23
2019-05-07T11:14:26.270Z,97612.76
2019-05-07T11:16:59.242Z,97613.47
2019-05-07T11:19:27.625Z,97602.97
2019-05-07T11:21:56.014Z,97605.69
2019-05-07T11:24:24.389Z,97602.97
2019-05-07T11:26:53.187Z,97601.02
2019-05-07T11:29:22.091Z,97597.28
2019-05-07T11:31:52.420Z,97595.08
2019-05-07T11:34:22.050Z,97590.74
2019-05-07T11:36:52.402Z,97585.34
2019-05-07T11:39:22.598Z,97584.94
2019-05-07T11:41:52.405Z,97575.79
2019-05-07T11:44:22.977Z,97578.35
2019-05-07T11:47:12.347Z,97573.38
2019-05-07T11:49:58.448Z,97573.58
2019-05-07T11:52:32.334Z,97569.88
2019-05-07T11:55:00.208Z,97565.23
2019-05-07T11:57:28.569Z,97566.47
2019-05-07T11:59:56.965Z,97561.06
2019-05-07T12:02:25.352Z,97551.86
2019-05-07T12:04:53.735Z,97562.39
2019-05-07T12:07:22.447Z,97553.73
2019-05-07T12:09:52.616Z,97548.33
2019-05-07T12:12:22.186Z,97545.33
2019-05-07T12:14:51.848Z,97538.14
2019-05-07T12:17:22.262Z,97544.92
2019-05-07T12:19:52.564Z,97539.41
2019-05-07T12:22:31.761Z,97536.41
2019-05-07T12:25:02.499Z,97535.78
2019-05-07T12:27:32.206Z,97528.12
2019-05-07T12:30:00.402Z,97535.43
2019-05-07T12:32:33.186Z,97524.63
2019-05-07T12:35:02.444Z,97520.33
2019-05-07T12:37:32.007Z,97519.83
2019-05-07T12:40:01.848Z,97510.19
2019-05-07T12:42:30.348Z,97522.47
2019-05-07T12:44:58.735Z,97517.33
2019-05-07T12:47:27.126Z,97518.73
2019-05-07T12:49:55.510Z,97517.65
2019-05-07T12:52:25.539Z,97518.43
2019-05-07T12:54:58.226Z,97512.84
2019-05-07T12:57:26.683Z,97504.34
2019-05-07T12:59:56.706Z,97506.64
2019-05-07T13:02:38.102Z,97500.14
2019-05-07T13:04:59.589Z,97507.88
2019-05-07T13:07:29.614Z,97505.73
2019-05-07T13:09:57.995Z,97502.34
2019-05-07T13:12:26.392Z,97504.12
2019-05-07T13:14:54.815Z,97501.52
2019-05-07T13:17:23.217Z,97494.70
2019-05-07T13:19:52.461Z,97488.28
2019-05-07T13:22:21.967Z,97486.59
2019-05-07T13:24:50.392Z,97480.03
2019-05-07T13:27:18.777Z,97483.48
2019-05-07T13:29:47.815Z,97491.03
2019-05-07T13:32:16.527Z,97480.86
2019-05-07T13:34:45.752Z,97481.30
2019-05-07T13:37:16.010Z,97483.44
2019-05-07T13:39:58.562Z,97483.88
2019-05-07T13:42:31.988Z,97482.19
2019-05-07T13:45:05.101Z,97478.08
2019-05-07T13:47:35.270Z,97481.28
2019-05-07T13:50:05.082Z,97475.67
2019-05-07T13:52:33.803Z,97482.34
2019-05-07T13:55:02.266Z,97472.48
2019-05-07T13:57:32.201Z,97467.23
2019-05-07T14:00:02.369Z,97460.95
2019-05-07T14:02:32.201Z,97461.19
2019-05-07T14:05:01.537Z,97460.25
2019-05-07T14:07:32.240Z,97460.84
2019-05-07T14:10:02.088Z,97453.43
2019-05-07T14:12:33.504Z,97450.94
2019-05-07T14:15:02.168Z,97449.84
2019-05-07T14:17:30.690Z,97448.38
2019-05-07T14:19:59.159Z,97453.27
2019-05-07T14:22:27.543Z,97447.67
2019-05-07T14:24:55.924Z,97436.00
2019-05-07T14:27:24.311Z,97437.61
2019-05-07T14:29:52.697Z,97442.47
2019-05-07T14:32:22.898Z,97442.39
2019-05-07T14:35:07.940Z,97437.77
2019-05-07T14:37:41.840Z,97432.87
2019-05-07T14:40:12.765Z,97436.98
2019-05-07T14:42:45.600Z,97432.87
2019-05-07T14:45:14.635Z,97428.90
2019-05-07T14:47:44.740Z,97433.55
2019-05-07T14:50:13.502Z,97431.78
2019-05-07T14:52:43.266Z,97431.19
2019-05-07T14:55:12.800Z,97428.14
2019-05-07T14:57:42.121Z,97425.98
2019-05-07T15:00:12.207Z,97430.44
2019-05-07T15:02:42.176Z,97419.00
2019-05-07T15:05:11.982Z,97422.28
2019-05-07T15:07:41.804Z,97425.63
2019-05-07T15:10:11.047Z,97417.82
2019-05-07T15:12:39.513Z,97424.00
2019-05-07T15:15:09.131Z,97421.65
2019-05-07T15:17:57.344Z,97418.89
2019-05-07T15:20:25.801Z,97421.56
2019-05-07T15:23:07.773Z,97420.85
2019-05-07T15:25:36.322Z,97420.14
2019-05-07T15:28:04.751Z,97419.53
2019-05-07T15:30:34.848Z,97422.06
2019-05-07T15:33:03.222Z,97421.67
2019-05-07T15:35:31.994Z,97411.58
2019-05-07T15:38:02.498Z,97414.14
2019-05-07T15:40:32.817Z,97414.83
2019-05-07T15:43:02.121Z,97416.28
2019-05-07T15:45:30.658Z,97412.77
2019-05-07T15:47:59.143Z,97416.36
2019-05-07T15:50:29.161Z,97412.18
2019-05-07T15:52:59.250Z,97414.00
2019-05-07T15:55:27.629Z,97413.25
2019-05-07T15:57:56.659Z,97413.92
2019-05-07T16:00:29.701Z,97412.34
2019-05-07T16:03:05.487Z,97406.31
2019-05-07T16:05:34.058Z,97404.86
2019-05-07T16:08:04.135Z,97405.72
2019-05-07T16:10:32.642Z,97404.02
2019-05-07T16:13:01.250Z,97404.10
2019-05-07T16:15:31.812Z,97400.00
2019-05-07T16:18:02.780Z,97394.12
2019-05-07T16:20:32.605Z,97398.17
2019-05-07T16:23:14.017Z,97404.61
2019-05-07T16:25:32.912Z,97399.34
2019-05-07T16:28:02.098Z,97400.09
2019-05-07T16:30:32.426Z,97400.33
2019-05-07T16:33:02.154Z,97397.03
2019-05-07T16:35:32.098Z,97402.78
2019-05-07T16:38:00.606Z,97398.95
2019-05-07T16:40:28.993Z,97395.05
2019-05-07T16:43:16.722Z,97393.91
2019-05-07T16:45:45.144Z,97392.67
2019-05-07T16:48:13.534Z,97401.08
2019-05-07T16:50:41.929Z,97397.25
2019-05-07T16:53:12.175Z,97391.52
2019-05-07T16:55:40.429Z,97392.41
2019-05-07T16:58:20.320Z,97393.54
2019-05-07T17:00:48.319Z,97386.69
2019-05-07T17:03:21.054Z,97392.17
2019-05-07T17:05:49.441Z,97382.46
2019-05-07T17:08:19.463Z,97383.94
2019-05-07T17:10:47.845Z,97382.70
2019-05-07T17:13:16.234Z,97377.23
2019-05-07T17:16:03.395Z,97383.41
2019-05-07T17:18:32.632Z,97322.62
2019-05-07T17:21:02.039Z,97375.78
2019-05-07T17:23:43.690Z,97374.72
2019-05-07T17:26:00.718Z,97371.28
2019-05-07T17:28:29.109Z,97370.33
2019-05-07T17:30:57.494Z,97375.61
2019-05-07T17:33:25.881Z,97375.98
2019-05-07T17:35:54.445Z,97364.87
2019-05-07T17:38:23.246Z,97366.90
2019-05-07T17:40:52.233Z,97369.92
2019-05-07T17:43:21.994Z,97361.84
2019-05-07T17:45:52.286Z,97362.67
2019-05-07T17:48:23.045Z,97357.93
2019-05-07T17:51:01.272Z,97373.84
2019-05-07T17:53:31.882Z,97365.23
2019-05-07T17:56:02.000Z,97368.16
2019-05-07T17:58:29.904Z,97367.89
2019-05-07T18:01:01.787Z,97368.44
2019-05-07T18:03:34.537Z,97367.48
2019-05-07T18:06:03.664Z,97368.70
2019-05-07T18:08:32.751Z,97360.30
2019-05-07T18:11:02.367Z,97365.63
2019-05-07T18:13:32.338Z,97366.27
2019-05-07T18:16:02.979Z,97364.27
2019-05-07T18:18:32.820Z,97367.93
2019-05-07T18:21:12.645Z,97375.52
2019-05-07T18:23:46.923Z,97377.34
2019-05-07T18:26:27.146Z,97373.92
2019-05-07T18:28:45.432Z,97374.28
2019-05-07T18:31:30.096Z,97369.30
2019-05-07T18:33:59.650Z,97310.02
2019-05-07T18:36:28.034Z,97369.92
2019-05-07T18:38:56.416Z,97373.45
2019-05-07T18:41:24.879Z,97371.28
2019-05-07T18:43:54.698Z,97371.05
2019-05-07T18:46:23.143Z,97368.02
2019-05-07T18:48:51.924Z,97370.59
2019-05-07T18:51:25.956Z,97368.52
2019-05-07T18:53:54.350Z,97375.77
2019-05-07T18:56:22.748Z,97370.41
2019-05-07T18:58:52.087Z,97368.12
2019-05-07T19:01:22.569Z,97373.55
2019-05-07T19:03:52.580Z,97372.78
2019-05-07T19:06:22.279Z,97366.92
2019-05-07T19:08:52.537Z,97364.20
2019-05-07T19:11:22.861Z,97369.51
2019-05-07T19:13:52.505Z,97369.23
2019-05-07T19:16:23.004Z,97374.16
2019-05-07T19:18:51.590Z,97371.28
2019-05-07T19:21:22.233Z,97370.69
2019-05-07T19:23:50.331Z,97370.21
2019-05-07T19:26:18.792Z,97365.39
2019-05-07T19:28:47.185Z,97372.98
2019-05-07T19:31:15.589Z,97366.94
2019-05-07T19:33:45.867Z,97369.78
2019-05-07T19:36:14.260Z,97313.80
2019-05-07T19:38:42.653Z,97366.92
2019-05-07T19:41:12.338Z,97375.73
2019-05-07T19:43:41.913Z,97369.95
2019-05-07T19:46:12.307Z,97375.28
2019-05-07T19:48:40.554Z,97369.66
2019-05-07T19:51:08.944Z,97378.76
2019-05-07T19:53:39.041Z,97372.03
2019-05-07T19:56:18.563Z,97314.26
2019-05-07T19:58:47.013Z,97370.39
2019-05-07T20:01:17.106Z,97367.66
2019-05-07T20:03:48.325Z,97372.21
2019-05-07T20:06:16.709Z,97266.16
2019-05-07T20:08:45.111Z,97369.16
2019-05-07T20:11:15.154Z,97368.50
2019-05-07T20:13:43.867Z,97369.11
2019-05-07T20:16:19.386Z,97368.17
2019-05-07T20:18:48.053Z,97369.19
2019-05-07T20:21:16.437Z,97367.02
2019-05-07T20:23:44.822Z,97364.02
2019-05-07T20:26:13.284Z,97366.80
2019-05-07T20:28:41.948Z,97360.14
2019-05-07T20:31:12.285Z,97363.00
2019-05-07T20:33:42.276Z,97358.87
2019-05-07T20:36:10.944Z,97361.14
2019-05-07T20:38:39.345Z,97359.25
2019-05-07T20:41:07.805Z,97354.28
2019-05-07T20:43:36.205Z,97358.30
2019-05-07T20:46:04.732Z,97354.98
2019-05-07T20:48:33.137Z,97354.28
2019-05-07T20:51:01.525Z,97337.89
2019-05-07T20:53:48.005Z,97345.67
2019-05-07T20:56:18.079Z,97348.45
2019-05-07T20:58:46.495Z,97346.88
2019-05-07T21:01:14.913Z,97351.30
2019-05-07T21:03:43.275Z,97353.27
2019-05-07T21:06:11.780Z,97351.65
2019-05-07T21:08:40.181Z,97356.03
2019-05-07T21:11:08.621Z,97353.53
2019-05-07T21:13:37.068Z,97353.75
2019-05-07T21:16:06.216Z,97350.43
2019-05-07T21:18:34.618Z,97347.15
2019-05-07T21:21:03.036Z,97341.78
2019-05-07T21:23:32.563Z,97345.33
2019-05-07T21:26:02.181Z,97341.13
2019-05-07T21:28:32.357Z,97342.59
2019-05-07T21:31:02.758Z,97351.69
2019-05-07T21:33:32.243Z,97355.25
2019-05-07T21:36:02.721Z,97354.92
2019-05-07T21:38:32.651Z,97349.98
2019-05-07T21:41:00.885Z,97351.00
2019-05-07T21:43:29.264Z,97348.63
2019-05-07T21:45:57.730Z,97348.34
2019-05-07T21:48:26.176Z,97351.06
2019-05-07T21:50:55.096Z,97349.85
2019-05-07T21:53:28.068Z,97345.20
2019-05-07T21:56:13.930Z,97337.13
2019-05-07T21:58:46.529Z,97337.63
2019-05-07T22:01:16.637Z,97332.18
2019-05-07T22:03:47.047Z,97337.71
2019-05-07T22:06:15.448Z,97334.75
2019-05-07T22:08:43.872Z,97337.44
2019-05-07T22:11:12.555Z,97340.20
2019-05-07T22:13:43.267Z,97335.20
2019-05-07T22:16:13.060Z,97331.95
2019-05-07T22:18:42.666Z,97325.25
2019-05-07T22:21:12.386Z,97325.81
2019-05-07T22:23:42.842Z,97327.14
2019-05-07T22:26:20.001Z,97321.64
2019-05-07T22:28:42.038Z,97322.14
2019-05-07T22:31:29.797Z,97317.06
2019-05-07T22:34:02.019Z,97316.30
2019-05-07T22:36:29.929Z,97315.53
2019-05-07T22:38:58.325Z,97313.04
2019-05-07T22:41:26.724Z,97319.09
2019-05-07T22:43:55.164Z,97311.62
2019-05-07T22:46:23.572Z,97308.31
2019-05-07T22:48:51.955Z,97313.07
2019-05-07T22:51:22.698Z,97303.73
2019-05-07T22:53:50.566Z,97307.20
2019-05-07T22:56:31.878Z,97296.22
2019-05-07T22:58:50.805Z,97300.14
2019-05-07T23:01:19.463Z,97300.70
2019-05-07T23:03:47.891Z,97299.48
2019-05-07T23:06:16.323Z,97290.16
2019-05-07T23:08:44.724Z,97291.09
2019-05-07T23:11:13.227Z,97289.39
2019-05-07T23:13:42.661Z,97290.84
2019-05-07T23:16:12.555Z,97295.11
2019-05-07T23:18:42.931Z,97293.06
2019-05-07T23:21:11.346Z,97285.77
2019-05-07T23:23:42.038Z,97282.41
2019-05-07T23:26:12.254Z,97281.15
2019-05-07T23:28:41.839Z,97277.81
2019-05-07T23:31:12.135Z,97279.58
2019-05-07T23:33:40.244Z,97275.84
2019-05-07T23:36:08.668Z,97275.08
2019-05-07T23:38:37.094Z,97272.57
2019-05-07T23:41:12.880Z,97270.55
2019-05-07T23:43:42.386Z,97268.04
2019-05-07T23:46:12.786Z,97264.76
2019-05-07T23:48:42.743Z,97266.55
2019-05-07T23:51:12.593Z,97260.13
2019-05-07T23:53:44.199Z,97262.70
2019-05-07T23:56:13.128Z,97263.98
2019-05-07T23:58:42.010Z,97265.72
